Time;durP1;ratioP1;P1;durP2;ratioP2;P2;SDS_P1;SDS_P2;PMS_P1;PMS_P2;Temp;Humidity;BMP_temperature;BMP_pressure;BME280_temperature;BME280_humidity;BME280_pressure;Samples;Min_cycle;Max_cycle;Signal;HPM_P1;HPM_P2
2021/12/21 00:00:54;;;;;;;12.47;5.03;;;;;;;-3.99;100.00;96954.16;5027168;28;20451;-74
2021/12/21 00:03:20;;;;;;;18.40;6.00;;;;;;;-4.05;100.00;96952.66;5026981;28;20452;-74
2021/12/21 00:05:46;;;;;;;18.47;5.50;;;;;;;-4.03;100.00;96954.25;4993766;28;20483;-74
2021/12/21 00:08:13;;;;;;;12.13;5.47;;;;;;;-4.06;100.00;96948.38;5000619;28;20486;-74
2021/12/21 00:10:43;;;;;;;14.20;5.50;;;;;;;-4.10;100.00;96954.53;5020156;28;20456;-74
2021/12/21 00:14:00;;;;;;;12.90;5.53;;;;;;;-4.11;100.00;96952.88;4989656;28;20468;-74
2021/12/21 00:18:36;;;;;;;12.80;5.20;;;;;;;-4.10;100.00;96947.66;5004060;28;20507;-74
2021/12/21 00:23:37;;;;;;;15.67;5.10;;;;;;;-4.00;100.00;96943.03;5030842;28;20447;-74
2021/12/21 00:26:20;;;;;;;13.80;4.93;;;;;;;-4.03;100.00;96943.97;5028140;28;20460;-74
2021/12/21 00:31:19;;;;;;;12.20;3.65;;;;;;;-4.01;100.00;96940.53;5021234;28;20262;-74
2021/12/21 00:33:47;;;;;;;15.27;5.57;;;;;;;-4.01;100.00;96941.38;4997589;28;20474;-75
2021/12/21 00:36:15;;;;;;;12.97;5.23;;;;;;;-4.07;100.00;96937.28;5015955;28;20479;-74
2021/12/21 00:38:41;;;;;;;16.57;5.00;;;;;;;-4.08;100.00;96935.59;4990085;28;20469;-75
2021/12/21 00:41:07;;;;;;;17.53;5.70;;;;;;;-4.11;100.00;96934.88;5009543;28;20425;-74
2021/12/21 00:43:36;;;;;;;18.10;5.23;;;;;;;-4.06;100.00;96931.28;4991974;28;20478;-75
2021/12/21 00:46:02;;;;;;;14.47;4.70;;;;;;;-4.09;100.00;96912.53;5008038;28;20040;-74
2021/12/21 00:48:30;;;;;;;12.73;5.80;;;;;;;-4.03;100.00;96914.88;5022405;28;20463;-74
2021/12/21 00:51:07;;;;;;;15.67;5.20;;;;;;;-4.05;100.00;96914.13;5004206;28;20869;-74
2021/12/21 00:53:36;;;;;;;12.43;5.27;;;;;;;-4.09;100.00;96913.41;4992928;28;21042;-74
2021/12/21 00:56:03;;;;;;;10.70;4.07;;;;;;;-4.03;100.00;96917.47;5032524;28;20566;-74
2021/12/21 00:58:30;;;;;;;10.87;4.43;;;;;;;-4.09;100.00;96908.25;4996531;28;20471;-74
2021/12/21 01:00:57;;;;;;;18.13;5.63;;;;;;;-4.09;100.00;96913.41;5017641;28;20928;-74
2021/12/21 01:03:23;;;;;;;14.03;5.83;;;;;;;-4.04;100.00;96911.50;5012784;28;21032;-74
2021/12/21 01:05:59;;;;;;;17.03;5.17;;;;;;;-4.09;100.00;96905.69;5022676;28;20454;-74
2021/12/21 01:08:29;;;;;;;14.53;5.30;;;;;;;-4.09;100.00;96905.69;5021435;28;20108;-74
2021/12/21 01:16:06;;;;;;;12.83;4.90;;;;;;;-4.05;100.00;96899.53;5029385;28;20033;-74
2021/12/21 01:18:51;;;;;;;11.70;5.63;;;;;;;-4.08;100.00;96893.69;5010767;28;20467;-74
2021/12/21 01:21:20;;;;;;;10.97;5.10;;;;;;;-4.09;100.00;96895.41;5014538;28;20437;-74
2021/12/21 01:31:43;;;;;;;12.00;5.10;;;;;;;-4.14;100.00;96906.72;5027323;28;20468;-74
2021/12/21 01:37:00;;;;;;;14.97;5.77;;;;;;;-4.19;100.00;96894.06;5012057;28;20559;-74
2021/12/21 01:42:09;;;;;;;9.97;4.63;;;;;;;-4.23;100.00;96889.06;5032406;28;19920;-74
2021/12/21 01:50:04;;;;;;;17.20;5.57;;;;;;;-4.25;100.00;96884.00;5010374;28;20653;-74
2021/12/21 01:52:29;;;;;;;11.33;5.03;;;;;;;-4.27;100.00;96878.91;5013545;28;20498;-74
2021/12/21 01:54:55;;;;;;;13.17;4.80;;;;;;;-4.26;100.00;96882.28;5029810;28;20464;-74
2021/12/21 01:57:21;;;;;;;12.43;5.17;;;;;;;-4.25;100.00;96880.59;5020234;28;20044;-74
2021/12/21 01:59:48;;;;;;;15.23;5.60;;;;;;;-4.24;100.00;96867.69;5013045;28;20044;-75
2021/12/21 02:02:20;;;;;;;12.70;4.87;;;;;;;-4.26;100.00;96869.47;5009197;28;20452;-74
2021/12/21 02:04:46;;;;;;;9.90;4.63;;;;;;;-4.33;100.00;96873.13;5030905;28;21018;-75
2021/12/21 02:07:13;;;;;;;9.90;4.90;;;;;;;-4.35;100.00;96869.78;5011460;28;20456;-74
2021/12/21 02:09:39;;;;;;;13.67;5.10;;;;;;;-4.40;100.00;96872.50;4995276;28;20029;-74
2021/12/21 02:12:10;;;;;;;11.77;4.63;;;;;;;-4.40;100.00;96871.66;5034044;28;20498;-74
2021/12/21 02:14:37;;;;;;;12.27;4.70;;;;;;;-4.39;100.00;96858.78;5010440;28;20486;-74
2021/12/21 02:20:01;;;;;;;10.40;3.47;;;;;;;-4.34;100.00;96862.03;5010862;28;20488;-74
2021/12/21 02:22:31;;;;;;;12.03;5.13;;;;;;;-4.43;100.00;96869.22;5030992;28;20040;-74
2021/12/21 02:25:32;;;;;;;12.10;4.57;;;;;;;-4.48;100.00;96871.94;5010065;28;20455;-74
2021/12/21 02:30:51;;;;;;;8.52;3.25;;;;;;;-4.53;100.00;96864.41;5004570;28;20521;-74
2021/12/21 02:33:18;;;;;;;15.60;5.07;;;;;;;-4.47;100.00;96870.22;5017933;28;20037;-74
2021/12/21 02:35:44;;;;;;;10.30;4.47;;;;;;;-4.48;100.00;96863.41;5034116;28;20486;-74
2021/12/21 02:38:14;;;;;;;12.63;4.73;;;;;;;-4.53;100.00;96864.41;5034570;28;20425;-74
2021/12/21 02:40:41;;;;;;;13.27;5.10;;;;;;;-4.56;100.00;96871.34;5007396;28;20487;-74
2021/12/21 02:43:10;;;;;;;10.00;4.93;;;;;;;-4.56;100.00;96867.06;5013099;28;20503;-73
2021/12/21 02:45:38;;;;;;;10.23;4.70;;;;;;;-4.55;100.00;96860.22;5010856;28;20467;-74
2021/12/21 02:48:05;;;;;;;11.20;5.20;;;;;;;-4.59;100.00;96862.03;5030688;28;20515;-74
2021/12/21 02:50:31;;;;;;;12.83;4.80;;;;;;;-4.54;100.00;96859.31;5042118;28;20502;-74
2021/12/21 02:52:59;;;;;;;9.03;4.37;;;;;;;-4.55;100.00;96867.91;5010326;28;20942;-74
2021/12/21 02:55:26;;;;;;;15.17;4.70;;;;;;;-4.55;100.00;96866.19;5036785;28;20053;-74
2021/12/21 02:57:52;;;;;;;12.83;5.07;;;;;;;-4.57;100.00;96864.53;4998679;28;21000;-74
2021/12/21 03:00:19;;;;;;;12.40;4.43;;;;;;;-4.64;100.00;96861.34;4998282;28;20510;-74
2021/12/21 03:02:45;;;;;;;11.97;5.13;;;;;;;-4.55;100.00;96865.34;5030172;28;20499;-74
2021/12/21 03:05:11;;;;;;;12.63;4.80;;;;;;;-4.54;100.00;96865.28;5008763;28;20791;-74
2021/12/21 03:10:24;;;;;;;13.00;6.03;;;;;;;-4.66;100.00;96854.56;5031597;28;20022;-74
2021/12/21 03:15:29;;;;;;;11.87;4.87;;;;;;;-4.66;100.00;96855.44;5009656;28;20895;-75
2021/12/21 03:17:56;;;;;;;11.33;4.80;;;;;;;-4.68;100.00;96859.78;5000633;28;21241;-74
2021/12/21 03:20:23;;;;;;;12.20;5.40;;;;;;;-4.70;100.00;96861.53;4993100;28;20463;-74
2021/12/21 03:22:49;;;;;;;12.13;5.17;;;;;;;-4.74;100.00;96858.25;5028090;28;20817;-74
2021/12/21 03:25:18;;;;;;;12.83;5.80;;;;;;;-4.73;100.00;96856.50;5028692;28;20464;-74
2021/12/21 03:27:44;;;;;;;13.13;4.90;;;;;;;-4.77;100.00;96860.06;5016809;28;20025;-74
2021/12/21 03:30:15;;;;;;;13.57;5.27;;;;;;;-4.78;100.00;96848.13;5027450;28;21008;-74
2021/12/21 03:32:41;;;;;;;15.17;6.77;;;;;;;-4.73;100.00;96848.81;5011969;28;20399;-74
2021/12/21 03:35:08;;;;;;;14.47;5.63;;;;;;;-4.77;100.00;96847.25;5008341;28;20468;-74
2021/12/21 03:37:34;;;;;;;10.57;5.00;;;;;;;-4.79;100.00;96846.47;5010011;28;20492;-74
2021/12/21 03:40:03;;;;;;;16.50;5.60;;;;;;;-4.81;100.00;96850.81;4998808;28;20534;-75
2021/12/21 03:42:28;;;;;;;11.67;5.10;;;;;;;-4.84;100.00;96841.47;4990100;28;20448;-74
2021/12/21 03:44:55;;;;;;;11.43;5.57;;;;;;;-4.88;100.00;96846.78;5017657;28;20474;-74
2021/12/21 03:47:22;;;;;;;12.87;5.23;;;;;;;-4.90;100.00;96853.66;4994398;28;20490;-74
2021/12/21 03:49:55;;;;;;;10.37;5.10;;;;;;;-4.87;100.00;96851.84;5038451;28;20483;-74
2021/12/21 03:52:24;;;;;;;13.50;5.32;;;;;;;-4.89;100.00;96852.78;5019824;28;21199;-74
2021/12/21 03:54:53;;;;;;;12.40;4.97;;;;;;;-4.83;100.00;96852.56;5007663;28;20029;-74
2021/12/21 03:57:19;;;;;;;13.20;6.27;;;;;;;-4.80;100.00;96858.44;5007079;28;20464;-74
2021/12/21 03:59:45;;;;;;;15.93;6.10;;;;;;;-4.78;100.00;96853.28;5014056;28;20844;-74
2021/12/21 04:02:13;;;;;;;12.67;5.50;;;;;;;-4.88;100.00;96847.59;4993472;28;20491;-74
2021/12/21 04:04:40;;;;;;;11.43;6.57;;;;;;;-4.89;100.00;96852.78;5028240;28;20447;-74
2021/12/21 04:07:06;;;;;;;14.80;5.80;;;;;;;-4.91;100.00;96850.25;5008408;28;20444;-73
2021/12/21 04:09:32;;;;;;;10.70;5.47;;;;;;;-4.92;100.00;96852.91;5018035;28;20471;-74
2021/12/21 04:12:00;;;;;;;11.57;5.47;;;;;;;-4.90;100.00;96853.66;4992249;28;20452;-74
2021/12/21 04:14:28;;;;;;;12.97;5.20;;;;;;;-4.89;100.00;96858.75;5010824;28;20472;-74
2021/12/21 04:16:53;;;;;;;11.27;5.90;;;;;;;-4.93;100.00;96857.16;5021185;28;20468;-74
2021/12/21 04:19:21;;;;;;;14.63;6.17;;;;;;;-4.93;100.00;96861.47;5009499;28;20476;-74
2021/12/21 04:21:47;;;;;;;11.70;5.53;;;;;;;-4.95;100.00;96865.81;5040483;28;20033;-74
2021/12/21 04:24:12;;;;;;;15.93;6.23;;;;;;;-4.98;100.00;96859.88;4992505;28;20559;-74
2021/12/21 04:26:38;;;;;;;13.40;5.70;;;;;;;-4.97;100.00;96865.84;5013120;28;20022;-74
2021/12/21 04:29:04;;;;;;;11.73;5.57;;;;;;;-5.01;100.00;96865.09;5032423;28;20106;-74
2021/12/21 04:31:30;;;;;;;14.60;6.23;;;;;;;-4.94;100.00;96863.19;5016556;28;20030;-74
2021/12/21 04:33:56;;;;;;;12.13;5.27;;;;;;;-4.99;100.00;96863.34;5017781;28;20033;-74
2021/12/21 04:36:22;;;;;;;14.57;5.53;;;;;;;-5.00;100.00;96866.81;5017801;28;20418;-74
2021/12/21 04:38:50;;;;;;;14.63;6.17;;;;;;;-5.02;100.00;96862.59;5013577;28;20033;-74
2021/12/21 04:41:24;;;;;;;12.10;6.20;;;;;;;-5.02;100.00;96873.69;5038361;28;20450;-74
2021/12/21 04:43:59;;;;;;;11.93;5.80;;;;;;;-5.04;100.00;96866.94;4998188;28;20823;-74
2021/12/21 04:46:25;;;;;;;14.33;6.00;;;;;;;-4.95;100.00;96868.38;5030831;28;20981;-74
2021/12/21 04:48:52;;;;;;;12.50;5.73;;;;;;;-5.00;100.00;96855.69;5016082;28;20940;-74
2021/12/21 04:51:18;;;;;;;14.97;5.93;;;;;;;-5.01;100.00;96870.25;5014709;28;20451;-74
2021/12/21 04:53:44;;;;;;;11.57;5.67;;;;;;;-5.07;100.00;96860.16;5014712;28;20989;-74
2021/12/21 04:56:10;;;;;;;10.30;4.53;;;;;;;-4.98;100.00;96865.00;5018273;28;20502;-74
2021/12/21 04:58:36;;;;;;;15.13;5.47;;;;;;;-5.02;100.00;96860.88;5012491;28;20033;-74
2021/12/21 05:01:03;;;;;;;14.30;6.37;;;;;;;-5.06;100.00;96859.31;5014116;28;20040;-74
2021/12/21 05:03:29;;;;;;;11.90;5.87;;;;;;;-5.05;100.00;96860.97;5029537;28;20032;-74
2021/12/21 05:05:55;;;;;;;13.97;5.67;;;;;;;-5.11;100.00;96861.16;5021409;28;20837;-74
2021/12/21 05:08:31;;;;;;;15.73;5.23;;;;;;;-5.17;100.00;96863.06;5013761;28;20029;-74
2021/12/21 05:11:05;;;;;;;11.83;5.53;;;;;;;-5.20;100.00;96858.88;5009617;28;20552;-74
2021/12/21 05:13:32;;;;;;;;;;;;;;;-5.18;100.00;96863.97;5000451;28;20471;-74
2021/12/21 05:15:58;;;;;;;9.83;5.27;;;;;;;-5.22;100.00;96856.38;5015285;28;19948;-74
2021/12/21 05:18:24;;;;;;;10.13;5.00;;;;;;;-5.21;100.00;96852.09;4999335;28;20490;-74
2021/12/21 05:20:51;;;;;;;12.40;5.40;;;;;;;-5.14;100.00;96856.13;5019458;28;20554;-74
2021/12/21 05:23:17;;;;;;;11.13;5.53;;;;;;;-5.16;100.00;96859.63;5022226;28;21425;-74
2021/12/21 05:25:43;;;;;;;12.10;6.60;;;;;;;-5.18;100.00;96854.56;5020643;28;20448;-74
2021/12/21 05:28:12;;;;;;;12.00;5.70;;;;;;;-5.22;100.00;96855.53;5021658;28;20107;-74
2021/12/21 05:30:38;;;;;;;12.77;5.47;;;;;;;-5.28;100.00;96851.44;5012543;28;20521;-74
2021/12/21 05:33:05;;;;;;;12.33;6.73;;;;;;;-5.29;100.00;96854.91;5011892;28;20950;-74
2021/12/21 05:35:34;;;;;;;12.40;6.03;;;;;;;-5.28;100.00;96850.59;5027375;28;20451;-74
2021/12/21 05:38:04;;;;;;;11.53;6.63;;;;;;;-5.32;100.00;96854.16;5016344;28;20463;-74
2021/12/21 05:40:34;;;;;;;10.97;6.50;;;;;;;-5.39;100.00;96844.97;4997352;28;20563;-74
2021/12/21 05:43:01;;;;;;;19.47;7.33;;;;;;;-5.40;100.00;96846.69;5016997;28;20432;-74
2021/12/21 05:45:27;;;;;;;13.73;6.00;;;;;;;-5.40;100.00;96835.59;5008657;28;20444;-74
2021/12/21 05:47:52;;;;;;;13.47;5.37;;;;;;;-5.39;100.00;96839.84;5018887;28;20492;-75
2021/12/21 05:50:19;;;;;;;15.07;7.07;;;;;;;-5.36;100.00;96842.31;5013016;28;20486;-74
2021/12/21 05:52:46;;;;;;;15.67;7.10;;;;;;;-5.36;100.00;96843.16;5007170;28;20037;-74
2021/12/21 05:55:13;;;;;;;13.13;6.87;;;;;;;-5.36;100.00;96843.16;5003437;28;20448;-74
2021/12/21 05:57:39;;;;;;;13.37;7.03;;;;;;;-5.37;100.00;96843.19;5011473;28;20497;-74
2021/12/21 06:00:11;;;;;;;13.47;6.83;;;;;;;-5.41;100.00;96846.75;5015068;28;20522;-73
2021/12/21 06:02:37;;;;;;;13.47;7.43;;;;;;;-5.41;100.00;96845.00;4993259;28;20468;-74
2021/12/21 06:05:04;;;;;;;13.70;6.83;;;;;;;-5.43;100.00;96848.50;5014101;28;20523;-74
2021/12/21 06:07:31;;;;;;;14.43;6.23;;;;;;;-5.43;100.00;96851.06;4992984;28;20116;-75
2021/12/21 06:09:57;;;;;;;15.57;6.13;;;;;;;-5.47;100.00;96853.72;5011750;28;20905;-74
2021/12/21 06:23:32;;;;;;;14.33;6.30;;;;;;;-5.38;100.00;96838.97;5033537;28;20467;-75
2021/12/21 06:25:59;;;;;;;10.63;5.03;;;;;;;-5.37;100.00;96838.06;5020292;28;20869;-73
2021/12/21 06:28:25;;;;;;;11.68;4.60;;;;;;;-5.31;100.00;96830.19;5030640;28;20483;-73
2021/12/21 06:30:51;;;;;;;16.80;5.50;;;;;;;-5.28;100.00;96836.06;4994443;28;20132;-74
2021/12/21 06:33:17;;;;;;;9.90;5.23;;;;;;;-5.28;100.00;96838.63;4985612;28;20673;-74
2021/12/21 06:35:43;;;;;;;13.10;5.20;;;;;;;-5.26;100.00;96836.03;5021716;28;20048;-74
2021/12/21 06:38:10;;;;;;;13.13;5.80;;;;;;;-5.25;100.00;96837.69;5009490;28;20464;-73
2021/12/21 06:40:36;;;;;;;12.07;5.90;;;;;;;-5.28;100.00;96835.22;5005687;28;20472;-74
2021/12/21 06:43:03;;;;;;;13.17;5.43;;;;;;;-5.27;100.00;96831.75;5009036;28;20463;-74
2021/12/21 06:53:33;;;;;;;;;;;;;;;-5.28;100.00;96840.34;5011600;28;21223;-75
2021/12/21 06:55:58;;;;;;;11.50;5.47;;;;;;;-5.27;100.00;96842.84;5007303;28;19920;-75
2021/12/21 06:58:24;;;;;;;10.07;5.17;;;;;;;-5.28;100.00;96835.22;5010352;28;20031;-75
2021/12/21 07:00:52;;;;;;;8.83;5.60;;;;;;;-5.18;100.00;96840.91;4994257;28;20037;-76
2021/12/21 07:03:19;;;;;;;10.93;4.77;;;;;;;-5.23;100.00;96839.31;5013721;28;20120;-75
2021/12/21 07:05:47;;;;;;;10.30;4.87;;;;;;;-5.32;100.00;96837.03;4997668;28;21266;-75
2021/12/21 07:08:16;;;;;;;9.57;4.77;;;;;;;-5.26;100.00;96834.28;5029102;28;20471;-75
2021/12/21 07:11:10;;;;;;;10.10;5.77;;;;;;;-5.29;100.00;96839.50;5083122;27;20746;-75
2021/12/21 07:19:12;;;;;;;13.47;6.43;;;;;;;-5.27;100.00;96839.44;5073102;28;20466;-75
2021/12/21 07:21:38;;;;;;;9.93;5.67;;;;;;;-5.14;100.00;96838.19;5061904;28;20478;-75
2021/12/21 07:24:04;;;;;;;13.60;6.00;;;;;;;-5.12;100.00;96836.41;5059680;28;20020;-75
2021/12/21 07:26:30;;;;;;;11.03;5.23;;;;;;;-5.22;100.00;96835.03;5056011;28;20982;-75
2021/12/21 07:28:55;;;;;;;9.53;5.20;;;;;;;-5.26;100.00;96841.97;5068516;28;20475;-75
2021/12/21 07:31:21;;;;;;;10.93;4.80;;;;;;;-5.20;100.00;96840.94;5064473;28;20086;-75
2021/12/21 07:33:47;;;;;;;9.10;5.20;;;;;;;-5.24;100.00;96841.91;5066481;28;20108;-74
2021/12/21 07:36:13;;;;;;;10.60;5.03;;;;;;;-5.24;100.00;96841.91;5066844;28;20032;-75
2021/12/21 07:38:39;;;;;;;10.80;4.60;;;;;;;-5.21;100.00;96839.25;5064175;28;20477;-74
2021/12/21 07:41:04;;;;;;;11.70;5.50;;;;;;;-5.22;100.00;96846.13;5062011;28;20033;-74
2021/12/21 07:43:30;;;;;;;9.27;6.13;;;;;;;-5.19;100.00;96847.75;5060304;28;20036;-75
2021/12/21 07:45:56;;;;;;;8.40;4.87;;;;;;;-5.11;100.00;96850.91;5062884;28;20044;-75
2021/12/21 07:48:22;;;;;;;12.50;4.70;;;;;;;-4.98;100.00;96844.50;5060837;28;20108;-75
2021/12/21 07:50:50;;;;;;;14.30;5.40;;;;;;;-4.92;100.00;96847.75;5040568;28;20032;-74
2021/12/21 07:53:17;;;;;;;14.07;5.00;;;;;;;-4.91;100.00;96840.00;5064560;28;20402;-75
2021/12/21 07:55:43;;;;;;;8.63;4.63;;;;;;;-4.78;100.00;96843.00;5060436;28;20460;-76
2021/12/21 07:58:10;;;;;;;13.33;4.70;;;;;;;-4.68;100.00;96846.94;5062841;28;20525;-76
2021/12/21 08:00:36;;;;;;;9.40;4.37;;;;;;;-4.57;100.00;96849.97;5062346;28;20520;-76
2021/12/21 08:03:03;;;;;;;10.47;4.87;;;;;;;-4.31;100.00;96843.94;5075462;28;20465;-75
2021/12/21 08:05:32;;;;;;;9.50;5.40;;;;;;;-3.83;100.00;96840.50;5062023;28;20505;-75
2021/12/21 08:08:09;;;;;;;13.33;4.37;;;;;;;-3.39;100.00;96837.97;5062336;28;20478;-75
2021/12/21 08:10:49;;;;;;;10.47;4.50;;;;;;;-3.20;100.00;96837.28;5070777;28;20462;-74
2021/12/21 08:13:15;;;;;;;14.37;5.20;;;;;;;-2.98;100.00;96843.25;5044973;28;20456;-75
2021/12/21 08:15:41;;;;;;;10.03;4.87;;;;;;;-2.48;100.00;96849.78;5036366;28;20474;-75
2021/12/21 08:18:07;;;;;;;11.73;3.60;;;;;;;-2.24;100.00;96840.19;5055743;28;20028;-75
2021/12/21 08:20:33;;;;;;;7.40;4.03;;;;;;;-1.93;100.00;96850.00;5059291;28;20613;-75
2021/12/21 08:22:59;;;;;;;8.97;3.93;;;;;;;-1.54;100.00;96844.78;5046202;28;20478;-75
2021/12/21 08:25:26;;;;;;;11.27;4.80;;;;;;;-1.52;100.00;96842.13;5040174;28;21079;-75
2021/12/21 08:27:52;;;;;;;6.40;3.23;;;;;;;-1.03;100.00;96837.25;5034992;28;20082;-76
2021/12/21 08:30:18;;;;;;;10.30;4.90;;;;;;;-1.17;100.00;96839.63;5043269;28;20709;-75
2021/12/21 08:32:44;;;;;;;9.93;3.80;;;;;;;-0.75;100.00;96839.34;5048860;28;20911;-76
2021/12/21 08:35:13;;;;;;;11.80;3.50;;;;;;;-1.19;100.00;96842.31;5055125;28;20024;-75
2021/12/21 08:37:40;;;;;;;10.67;3.93;;;;;;;-0.73;100.00;96845.28;5048127;28;20539;-75
2021/12/21 08:40:07;;;;;;;6.40;3.23;;;;;;;-1.07;99.75;96840.91;5033229;28;20463;-76
2021/12/21 08:42:36;;;;;;;9.77;3.33;;;;;;;-0.40;98.74;96837.59;5049080;28;20919;-75
2021/12/21 08:45:06;;;;;;;6.93;3.70;;;;;;;-0.17;96.27;96836.41;5048422;28;20494;-77
2021/12/21 08:47:41;;;;;;;7.87;3.03;;;;;;;0.83;91.59;96836.28;5045377;28;20518;-75
2021/12/21 08:50:09;;;;;;;8.20;3.67;;;;;;;-0.28;94.77;96847.31;5058579;28;20471;-75
2021/12/21 08:52:36;;;;;;;9.40;3.50;;;;;;;0.16;92.07;96836.41;5045817;28;20463;-75
2021/12/21 08:55:07;;;;;;;8.27;3.50;;;;;;;0.72;93.08;96846.41;5049451;28;20810;-74
2021/12/21 08:57:33;;;;;;;8.00;3.33;;;;;;;1.65;90.82;96839.38;5034169;28;21060;-75
2021/12/21 08:59:59;;;;;;;6.60;3.30;;;;;;;0.70;91.61;96841.28;5045615;28;20585;-75
2021/12/21 09:02:29;;;;;;;7.80;3.77;;;;;;;0.82;85.46;96839.81;5045717;28;20706;-75
2021/12/21 09:04:54;;;;;;;8.37;4.13;;;;;;;-0.04;93.84;96839.19;5051078;28;20827;-75
2021/12/21 09:07:20;;;;;;;9.50;3.90;;;;;;;0.34;91.66;96841.56;5065737;28;20479;-75
2021/12/21 09:09:46;;;;;;;7.97;3.63;;;;;;;0.87;87.57;96843.81;5046134;28;20055;-75
2021/12/21 09:12:11;;;;;;;8.63;3.47;;;;;;;2.15;83.87;96841.63;5045185;28;20032;-76
2021/12/21 09:14:37;;;;;;;9.07;3.37;;;;;;;0.54;88.18;96841.31;5058930;28;20056;-76
2021/12/21 09:17:05;;;;;;;7.77;3.03;;;;;;;1.09;87.09;96842.63;5037723;28;20029;-75
2021/12/21 09:19:31;;;;;;;10.00;4.07;;;;;;;1.17;86.33;96846.47;5036444;28;20044;-76
2021/12/21 09:21:57;;;;;;;8.17;3.40;;;;;;;1.27;83.46;96848.50;5039032;28;20487;-76
2021/12/21 09:24:23;;;;;;;9.73;3.57;;;;;;;1.89;81.38;96857.84;5044941;28;20032;-75
2021/12/21 09:26:49;;;;;;;10.33;3.90;;;;;;;2.12;81.77;96846.09;5029594;28;20040;-75
2021/12/21 09:29:15;;;;;;;7.93;3.60;;;;;;;2.48;77.47;96844.78;5053746;28;20028;-75
2021/12/21 09:31:40;;;;;;;9.43;3.47;;;;;;;2.27;79.42;96841.72;5031448;28;20033;-76
2021/12/21 09:34:06;;;;;;;8.77;4.13;;;;;;;2.64;77.46;96841.25;5048692;28;20029;-75
2021/12/21 09:36:34;;;;;;;8.43;4.10;;;;;;;1.46;85.24;96856.06;5030304;28;20107;-75
2021/12/21 09:38:59;;;;;;;8.03;3.97;;;;;;;1.46;87.69;96846.53;5030616;28;20091;-75
2021/12/21 09:41:25;;;;;;;8.67;4.40;;;;;;;2.63;82.15;96839.56;5048756;28;20029;-76
2021/12/21 09:43:51;;;;;;;8.73;4.37;;;;;;;2.15;78.87;96836.44;5028122;28;20045;-76
2021/12/21 09:46:17;;;;;;;11.60;4.20;;;;;;;2.27;82.89;96833.13;5029955;28;20044;-75
2021/12/21 09:48:44;;;;;;;10.67;4.17;;;;;;;1.56;82.55;96833.88;5044826;28;20038;-76
2021/12/21 09:51:10;;;;;;;7.70;4.17;;;;;;;2.12;82.76;96830.53;5020889;28;20060;-75
2021/12/21 09:53:36;;;;;;;8.27;4.00;;;;;;;2.39;82.66;96824.59;5039077;28;20059;-76
2021/12/21 09:56:04;;;;;;;8.43;3.83;;;;;;;1.83;84.87;96829.66;5045992;28;20028;-76
2021/12/21 09:58:30;;;;;;;8.33;3.50;;;;;;;1.74;84.59;96819.84;5039391;28;20013;-76
2021/12/21 10:00:56;;;;;;;9.03;4.43;;;;;;;1.30;86.19;96832.78;5048987;28;20033;-76
2021/12/21 10:03:21;;;;;;;8.30;4.40;;;;;;;2.46;86.31;96823.28;5054195;28;20060;-76
2021/12/21 10:05:47;;;;;;;6.20;3.23;;;;;;;1.64;86.66;96834.25;5042247;28;20036;-75
2021/12/21 10:08:16;;;;;;;11.40;5.30;;;;;;;1.70;85.53;96835.66;5037483;28;20568;-76
2021/12/21 10:10:51;;;;;;;13.33;7.87;;;;;;;1.90;86.12;96835.31;5040212;28;20029;-76
2021/12/21 10:13:20;;;;;;;10.97;4.17;;;;;;;1.59;85.96;96834.53;5046532;28;20652;-75
2021/12/21 10:15:48;;;;;;;17.03;9.60;;;;;;;1.32;87.94;96836.13;5038457;28;20041;-76
2021/12/21 10:18:24;;;;;;;7.93;4.13;;;;;;;1.51;87.43;96834.16;5038568;28;20090;-75
2021/12/21 10:20:51;;;;;;;7.67;3.60;;;;;;;1.84;85.18;96833.09;5052701;28;20125;-76
2021/12/21 10:23:21;;;;;;;10.97;4.13;;;;;;;1.93;87.98;96831.72;5051049;28;20044;-76
2021/12/21 10:25:49;;;;;;;8.40;3.17;;;;;;;1.70;88.19;96820.94;5040345;28;20025;-76
2021/12/21 10:28:48;;;;;;;8.47;4.03;;;;;;;2.11;88.83;96815.91;5052236;28;20063;-76
2021/12/21 10:31:25;;;;;;;16.80;5.37;;;;;;;4.05;100.00;96806.84;5050960;28;20120;-76
2021/12/21 10:33:50;;;;;;;8.70;4.07;;;;;;;3.15;93.82;96815.47;5029743;28;20060;-78
2021/12/21 10:36:18;;;;;;;8.03;2.87;;;;;;;3.03;85.80;96804.94;5042938;28;20509;-74
2021/12/21 10:38:52;;;;;;;9.53;3.37;;;;;;;2.89;84.06;96805.00;5041082;28;20033;-74
2021/12/21 10:41:20;;;;;;;7.70;2.80;;;;;;;1.99;85.82;96808.03;5045982;28;20665;-76
2021/12/21 10:44:03;;;;;;;6.03;2.30;;;;;;;1.95;86.95;96811.72;5046426;28;20063;-76
2021/12/21 10:46:32;;;;;;;8.03;2.73;;;;;;;2.08;87.51;96804.88;5038425;28;20033;-76
2021/12/21 10:49:05;;;;;;;5.60;2.70;;;;;;;2.44;86.05;96803.53;5032307;28;20044;-76
2021/12/21 10:51:30;;;;;;;9.85;2.55;;;;;;;2.17;85.07;96801.69;5049521;28;20079;-76
2021/12/21 10:53:56;;;;;;;6.37;2.70;;;;;;;2.81;84.06;96797.69;5053208;28;20104;-76
2021/12/21 10:56:22;;;;;;;8.27;4.30;;;;;;;2.46;87.20;96804.28;5045682;28;20098;-77
2021/12/21 10:58:48;;;;;;;6.70;3.80;;;;;;;2.48;84.57;96800.66;5054659;28;20521;-76
2021/12/21 11:01:19;;;;;;;7.03;3.20;;;;;;;2.28;84.90;96801.03;5039127;28;20091;-75
2021/12/21 11:03:53;;;;;;;9.97;3.43;;;;;;;1.96;84.72;96811.63;5053572;28;20520;-76
2021/12/21 11:06:34;;;;;;;10.80;3.38;;;;;;;2.22;85.20;96801.44;5033665;28;20033;-76
2021/12/21 11:09:04;;;;;;;6.40;3.10;;;;;;;2.10;86.41;96800.41;5030641;28;20032;-75
2021/12/21 11:11:37;;;;;;;8.37;3.40;;;;;;;2.24;85.03;96792.59;5047814;28;20037;-75
2021/12/21 11:14:09;;;;;;;9.52;6.18;;;;;;;2.46;82.31;96783.50;5046247;28;20039;-75
2021/12/21 11:16:42;;;;;;;8.47;4.33;;;;;;;2.29;84.28;96785.38;5055591;28;20136;-76
2021/12/21 11:19:09;;;;;;;7.50;3.85;;;;;;;2.32;82.76;96779.19;5040739;28;20025;-76
2021/12/21 11:21:35;;;;;;;6.27;2.83;;;;;;;2.15;83.39;96777.63;5047840;28;20029;-75
2021/12/21 11:24:05;;;;;;;7.13;3.30;;;;;;;2.62;82.06;96778.19;5061349;28;20467;-75
2021/12/21 11:26:32;;;;;;;11.33;5.50;;;;;;;2.58;81.21;96769.75;5047416;28;20032;-75
2021/12/21 11:29:03;;;;;;;8.53;4.43;;;;;;;2.48;81.79;96766.06;5051260;28;20033;-75
2021/12/21 11:31:29;;;;;;;8.03;3.27;;;;;;;2.78;80.78;96760.69;5047600;28;20526;-75
2021/12/21 11:33:59;;;;;;;6.30;3.00;;;;;;;2.49;80.17;96760.78;5048484;28;20032;-75
2021/12/21 11:39:09;;;;;;;6.60;3.27;;;;;;;2.23;79.10;96764.16;5042168;28;20021;-76
2021/12/21 11:41:36;;;;;;;8.67;3.33;;;;;;;2.42;80.82;96754.31;5045692;28;20040;-76
2021/12/21 11:44:31;;;;;;;5.47;3.00;;;;;;;2.01;81.28;96752.53;5050226;28;20024;-74
2021/12/21 11:47:01;;;;;;;6.70;3.17;;;;;;;2.70;80.43;96757.75;5039407;28;20029;-75
2021/12/21 11:49:47;;;;;;;7.63;2.80;;;;;;;2.40;80.25;96755.34;5034331;28;20026;-75
2021/12/21 11:52:22;;;;;;;6.80;2.70;;;;;;;2.29;79.58;96748.22;5041581;28;20112;-75
2021/12/21 11:54:49;;;;;;;8.33;3.80;;;;;;;2.40;79.45;96738.00;5034701;28;20036;-74
2021/12/21 11:57:18;;;;;;;6.53;3.30;;;;;;;2.57;80.89;96749.91;5059074;28;20032;-74
2021/12/21 11:59:48;;;;;;;5.40;2.83;;;;;;;2.82;77.57;96741.41;5053150;28;20553;-75
2021/12/21 12:02:25;;;;;;;5.10;3.10;;;;;;;2.99;78.66;96732.50;5050302;28;20463;-74
2021/12/21 12:04:56;;;;;;;5.27;2.47;;;;;;;2.55;77.31;96750.03;5044415;28;20039;-74
2021/12/21 12:07:22;;;;;;;7.23;2.90;;;;;;;2.58;78.69;96744.63;5058059;28;20453;-74
2021/12/21 12:10:04;;;;;;;5.70;2.53;;;;;;;2.77;76.04;96746.03;5045320;28;20032;-76
2021/12/21 12:12:30;;;;;;;6.10;3.07;;;;;;;2.74;78.39;96736.69;5042660;28;20518;-75
2021/12/21 12:15:01;;;;;;;8.03;2.60;;;;;;;3.21;76.63;96737.13;5052335;28;20052;-74
2021/12/21 12:17:28;;;;;;;5.20;3.10;;;;;;;3.08;76.69;96731.88;5030069;28;20028;-76
2021/12/21 12:20:05;;;;;;;7.73;3.20;;;;;;;2.71;77.43;96739.47;5036158;28;20012;-75
2021/12/21 12:22:37;;;;;;;6.80;2.80;;;;;;;2.12;79.87;96744.09;5054264;28;20037;-76
2021/12/21 12:25:05;;;;;;;5.80;2.90;;;;;;;2.43;78.06;96750.78;5036306;28;20029;-76
2021/12/21 12:27:32;;;;;;;6.27;2.90;;;;;;;2.85;77.73;96746.41;5045014;28;20037;-75
2021/12/21 12:29:59;;;;;;;8.43;3.10;;;;;;;2.24;77.76;96752.84;5052944;28;20028;-75
2021/12/21 12:32:41;;;;;;;5.90;3.03;;;;;;;2.49;78.99;96742.63;5021760;28;20036;-75
2021/12/21 12:35:21;;;;;;;5.90;3.13;;;;;;;2.30;78.15;96734.31;5049676;28;20032;-76
2021/12/21 12:38:02;;;;;;;11.80;5.50;;;;;;;2.27;79.03;96729.31;5055839;28;20024;-75
2021/12/21 12:40:34;;;;;;;13.57;6.20;;;;;;;2.24;79.29;96729.50;5049722;28;20055;-76
2021/12/21 12:43:20;;;;;;;13.33;7.53;;;;;;;2.06;79.80;96728.88;5063207;28;20068;-75